Terminal Aerodrome Forecast
Issued by NWS

Home | Current Version | Previous Version | Text Only | Print | Product List | Glossary On
Versions: 1 2 3 4 5 6 7 8 9 10 11 12 13 14 15 16 17 18 19 20 21 22 23 24 25 26 27 28 29 30 31
279
FTUS41 KOKX 291331 AAA
TAFGON
TAF AMD
KGON 291331Z 2914/3012 01007KT 6SM -RA BKN060
      TEMPO 2914/2916 4SM -RA SCT015 BKN025
     FM291600 05010KT 6SM -RA OVC060
     FM292000 05008KT P6SM SCT060 BKN100
     FM292300 05005KT P6SM SCT060 SCT100
     FM300100 VRB03KT P6SM SCT250
     FM300600 VRB03KT 5SM BR SCT250=

USA.gov is the U.S. government's official web portal to all federal, state and local government web resources and services.